Time;durP1;ratioP1;P1;durP2;ratioP2;P2;SDS_P1;SDS_P2;PMS_P1;PMS_P2;Temp;Humidity;BMP_temperature;BMP_pressure;BME280_temperature;BME280_humidity;BME280_pressure;Samples;Min_cycle;Max_cycle;Signal;HPM_P1;HPM_P2
2021/12/11 00:01:16;;;;;;;4.03;0.93;;;;;;;3.16;72.47;100017.00;6162195;23;20025;-81
2021/12/11 00:03:46;;;;;;;9.23;1.48;;;;;;;3.20;72.48;100029.03;6138769;23;20005;-80
2021/12/11 00:06:33;;;;;;;10.93;1.23;;;;;;;3.18;72.44;100050.03;6145165;23;20005;-81
2021/12/11 00:09:21;;;;;;;6.90;1.67;;;;;;;2.93;72.66;100018.50;6143505;23;20297;-77
2021/12/11 00:12:37;;;;;;;9.13;1.17;;;;;;;3.09;73.44;100062.19;6136402;23;20006;-77
2021/12/11 00:15:49;;;;;;;3.13;1.33;;;;;;;3.03;73.69;100063.09;6099105;23;20010;-74
2021/12/11 00:18:23;;;;;;;4.03;1.45;;;;;;;2.91;74.37;100053.03;6141362;23;20422;-74
2021/12/11 00:21:16;;;;;;;;;;;;;;;;;;;;;
2021/12/11 00:27:38;;;;;;;13.13;2.03;;;;;;;2.96;75.22;100079.38;6163074;23;20062;-75
2021/12/11 00:30:30;;;;;;;3.85;2.05;;;;;;;2.89;75.46;100055.16;6134049;23;20006;-80
2021/12/11 00:33:02;;;;;;;5.72;2.10;;;;;;;2.88;75.99;100058.91;6138956;23;20032;-82
2021/12/11 00:35:39;;;;;;;;;;;;;;;;;;;;;
2021/12/11 00:38:12;;;;;;;13.52;1.90;;;;;;;3.06;75.68;100065.34;6163288;23;20036;-78
2021/12/11 00:41:08;;;;;;;15.50;2.42;;;;;;;3.19;75.93;100078.72;6166438;23;20435;-77
2021/12/11 00:44:16;;;;;;;;;;;;;;;;;;;;;
2021/12/11 00:47:00;;;;;;;18.52;2.42;;;;;;;3.13;76.73;100071.50;6160445;23;20005;-77
2021/12/11 00:49:49;;;;;;;23.17;3.00;;;;;;;3.28;76.20;100080.03;6135427;23;20068;-74
2021/12/11 00:52:53;;;;;;;9.48;1.73;;;;;;;3.42;75.87;100090.72;6139147;23;20012;-77
2021/12/11 00:55:52;;;;;;;;;;;;;;;;;;;;;
2021/12/11 00:59:12;;;;;;;;;;;;;;;;;;;;;
2021/12/11 01:02:16;;;;;;;15.55;2.13;;;;;;;3.58;75.48;100079.28;6173518;23;20051;-77
2021/12/11 01:05:06;;;;;;;;;;;;;;;;;;;;;
2021/12/11 01:07:50;;;;;;;7.28;2.10;;;;;;;3.47;75.09;100055.69;6196741;23;20036;-78
2021/12/11 01:11:23;;;;;;;4.93;1.42;;;;;;;3.59;75.04;100064.72;6145641;23;20092;-79
2021/12/11 01:14:42;;;;;;;12.07;2.17;;;;;;;3.71;75.25;100072.03;6061419;23;20007;-77
2021/12/11 01:17:22;;;;;;;2.90;1.15;;;;;;;3.70;75.09;100083.91;6065893;23;20103;-77
2021/12/11 01:19:54;;;;;;;9.55;2.20;;;;;;;3.66;74.49;100087.06;6073127;23;20035;-76
2021/12/11 01:22:48;;;;;;;12.45;1.85;;;;;;;3.62;74.59;100094.00;6177459;23;20009;-77
2021/12/11 01:25:25;;;;;;;13.57;2.30;;;;;;;3.60;74.93;100093.38;6169811;23;20013;-77
2021/12/11 01:28:01;;;;;;;9.07;1.80;;;;;;;3.60;74.95;100097.97;6195191;23;20171;-75
2021/12/11 01:30:41;;;;;;;11.00;1.65;;;;;;;3.61;74.89;100089.63;6143707;23;20012;-77
2021/12/11 01:33:12;;;;;;;9.18;1.85;;;;;;;3.64;75.46;100112.69;6170175;23;20005;-77
2021/12/11 01:35:40;;;;;;;18.27;1.83;;;;;;;3.69;75.47;100117.41;6194706;23;20005;-78
2021/12/11 01:38:17;;;;;;;9.15;1.77;;;;;;;3.63;75.30;100103.72;6167512;23;20005;-76
2021/12/11 01:40:49;;;;;;;6.10;1.63;;;;;;;3.70;75.99;100119.06;6170361;23;20234;-77
2021/12/11 01:43:55;;;;;;;7.07;1.40;;;;;;;3.83;75.68;100129.72;6141269;23;20017;-78
2021/12/11 01:50:23;;;;;;;7.70;2.38;;;;;;;3.83;75.17;100127.00;6135136;23;20002;-76
2021/12/11 01:53:55;;;;;;;;;;;;;;;;;;;;;
2021/12/11 01:59:53;;;;;;;8.73;2.00;;;;;;;3.49;76.07;100102.28;6103826;23;20021;-75
2021/12/11 02:02:55;;;;;;;9.70;2.08;;;;;;;3.72;76.14;100133.19;6096227;23;20019;-76
2021/12/11 02:10:13;;;;;;;;;;;;;;;;;;;;;
2021/12/11 02:23:44;;;;;;;;;;;;;;;;;;;;;
2021/12/11 02:34:37;;;;;;;8.75;1.83;;;;;;;3.30;75.29;100132.00;5964470;24;20019;-80
2021/12/11 02:37:45;;;;;;;7.53;1.63;;;;;;;3.22;75.53;100156.63;5942368;24;20008;-77
2021/12/11 02:51:21;;;;;;;;;;;;;;;;;;;;;
2021/12/11 02:54:16;;;;;;;10.50;2.33;;;;;;;3.39;76.18;100199.28;5970688;23;20062;-77
2021/12/11 02:57:55;;;;;;;7.28;1.52;;;;;;;3.41;77.04;100181.78;5971217;23;20008;-76
2021/12/11 03:04:00;;;;;;;5.10;1.60;;;;;;;3.81;76.86;100207.53;5989246;23;20012;-75
2021/12/11 03:09:56;;;;;;;14.98;2.72;;;;;;;3.91;76.70;100190.78;5997916;23;20028;-77
2021/12/11 03:12:52;;;;;;;13.23;2.90;;;;;;;4.04;77.05;100204.13;6117711;23;20057;-77
2021/12/11 03:22:13;;;;;;;;;;;;;;;4.25;76.59;100213.66;5968800;24;20076;-74
2021/12/11 03:29:05;;;;;;;7.05;1.50;;;;;;;4.39;76.08;100197.22;5969124;23;20456;-77
2021/12/11 03:34:52;;;;;;;6.97;2.00;;;;;;;4.28;76.12;100169.88;5967543;23;20019;-76
2021/12/11 03:40:41;;;;;;;6.03;1.98;;;;;;;4.36;75.88;100169.53;5981824;24;20023;-77
2021/12/11 03:46:28;;;;;;;12.32;2.22;;;;;;;4.58;74.95;100206.91;6138467;23;20021;-75
2021/12/11 03:48:58;;;;;;;6.30;1.75;;;;;;;4.53;75.64;100196.78;6197204;23;20009;-75
2021/12/11 03:52:17;;;;;;;4.30;1.50;;;;;;;4.47;75.26;100191.47;6172094;23;20004;-77
2021/12/11 03:58:56;;;;;;;10.32;1.45;;;;;;;4.61;75.17;100228.13;6196703;23;20065;-75
2021/12/11 04:14:28;;;;;;;1.88;0.98;;;;;;;4.59;74.12;100196.94;6134021;23;20028;-75
2021/12/11 04:17:36;;;;;;;2.63;1.00;;;;;;;4.81;74.30;100227.00;6198454;23;20001;-76
2021/12/11 04:20:09;;;;;;;6.70;1.42;;;;;;;4.85;74.90;100229.00;6199715;23;20004;-77
2021/12/11 04:22:42;;;;;;;1.95;0.82;;;;;;;4.89;73.79;100218.50;6224691;23;20013;-77
2021/12/11 04:25:11;;;;;;;2.25;0.77;;;;;;;4.94;73.91;100225.97;6200890;23;20004;-78
2021/12/11 04:27:37;;;;;;;4.53;1.00;;;;;;;4.94;74.63;100223.25;6201088;23;20078;-76
2021/12/11 04:33:44;;;;;;;5.55;1.30;;;;;;;4.85;74.32;100207.34;6189516;23;20035;-77
2021/12/11 04:36:16;;;;;;;4.18;1.35;;;;;;;4.96;74.31;100224.66;6196462;23;20008;-79
2021/12/11 04:38:42;;;;;;;7.07;1.17;;;;;;;4.94;74.23;100237.63;6199622;23;20034;-77
2021/12/11 04:41:21;;;;;;;;;;;;;;;;;;;;;
2021/12/11 04:43:51;;;;;;;9.63;1.38;;;;;;;4.92;74.36;100244.31;6225346;23;20019;-77
2021/12/11 04:46:16;;;;;;;5.65;1.30;;;;;;;4.92;74.14;100256.00;6225163;23;20001;-77
2021/12/11 04:51:28;;;;;;;2.80;1.20;;;;;;;4.93;74.04;100244.09;6224144;23;20019;-77
2021/12/11 05:10:24;;;;;;;5.35;1.52;;;;;;;4.96;74.25;100268.00;6223746;23;20059;-76
2021/12/11 05:12:56;;;;;;;9.40;1.60;;;;;;;4.93;74.63;100264.97;6221933;23;20009;-77
2021/12/11 05:17:35;;;;;;;;;;;;;;;;;;;;;
2021/12/11 05:20:32;;;;;;;;;;;;;;;;;;;;;
2021/12/11 05:29:44;;;;;;;9.30;1.55;;;;;;;5.00;74.77;100258.38;6110369;23;20337;-76
2021/12/11 05:32:23;;;;;;;;;;;;;;;;;;;;;
2021/12/11 05:34:49;;;;;;;8.90;2.22;;;;;;;5.00;74.79;100285.47;6162100;23;20041;-77
2021/12/11 05:37:15;;;;;;;13.95;2.70;;;;;;;4.94;74.99;100280.97;6187528;23;20008;-77
2021/12/11 05:39:58;;;;;;;8.57;2.40;;;;;;;4.89;75.02;100272.72;6223653;23;20072;-79
2021/12/11 05:42:24;;;;;;;11.88;1.95;;;;;;;4.92;74.96;100276.84;6225566;23;20074;-76
2021/12/11 05:44:49;;;;;;;7.32;2.00;;;;;;;4.92;75.27;100283.09;6226389;23;20004;-77
2021/12/11 05:47:16;;;;;;;13.02;2.13;;;;;;;4.92;76.21;100287.69;6171976;23;20004;-78
2021/12/11 05:49:50;;;;;;;8.75;2.40;;;;;;;4.91;76.17;100297.72;6224850;23;19997;-77
2021/12/11 05:52:26;;;;;;;;;;;;;;;;;;;;;
2021/12/11 05:55:13;;;;;;;;;;;;;;;;;;;;;
2021/12/11 05:57:49;;;;;;;;;;;;;;;;;;;;;
2021/12/11 06:04:22;;;;;;;;;;;;;;;;;;;;;
2021/12/11 06:06:48;;;;;;;10.77;2.08;;;;;;;4.95;75.49;100290.78;6225035;23;20028;-78
2021/12/11 06:09:20;;;;;;;10.48;1.88;;;;;;;5.07;75.83;100307.88;6225864;23;20007;-80
2021/12/11 06:11:49;;;;;;;7.93;1.75;;;;;;;5.18;76.08;100324.41;6198240;23;20004;-79
2021/12/11 06:14:17;;;;;;;5.55;1.65;;;;;;;5.15;75.35;100322.16;6201399;23;20004;-79
2021/12/11 06:16:47;;;;;;;2.95;1.20;;;;;;;5.25;75.56;100333.25;6198240;23;20004;-78
2021/12/11 06:19:20;;;;;;;3.10;1.50;;;;;;;5.28;75.18;100334.69;6200667;23;20027;-78
2021/12/11 06:21:57;;;;;;;4.35;1.73;;;;;;;5.28;74.83;100340.91;6196380;23;20351;-79
2021/12/11 06:31:44;;;;;;;11.27;1.70;;;;;;;5.19;74.46;100312.50;5994951;23;20670;-79
2021/12/11 06:34:16;;;;;;;5.72;1.88;;;;;;;5.24;75.17;100328.88;5967997;24;20018;-77
2021/12/11 06:43:49;;;;;;;3.17;1.23;;;;;;;5.29;74.72;100329.03;5970570;24;20012;-79
2021/12/11 06:49:35;;;;;;;7.55;2.10;;;;;;;5.30;75.14;100322.53;6161826;23;20854;-79
2021/12/11 06:52:04;;;;;;;3.78;1.10;;;;;;;5.39;75.55;100337.41;6194138;23;21017;-77
2021/12/11 06:54:32;;;;;;;17.70;2.55;;;;;;;5.39;74.81;100333.88;6192144;23;20075;-76
2021/12/11 06:57:00;;;;;;;5.38;1.42;;;;;;;5.50;74.13;100351.22;6190644;23;20328;-78
2021/12/11 07:02:52;;;;;;;2.78;0.80;;;;;;;5.37;74.20;100336.81;6174872;23;20013;-78
2021/12/11 07:05:18;;;;;;;1.80;0.98;;;;;;;5.35;74.24;100336.22;6194157;23;20001;-79
2021/12/11 07:07:46;;;;;;;2.83;1.17;;;;;;;5.37;74.38;100339.53;6193229;23;20032;-78
2021/12/11 07:23:37;;;;;;;;;;;;;;;;;;;;;
2021/12/11 07:26:55;;;;;;;2.53;0.82;;;;;;;5.02;74.43;100353.84;6050272;23;20054;-77
2021/12/11 07:33:55;;;;;;;1.95;0.60;;;;;;;4.96;74.20;100371.00;6042092;23;20041;-78
2021/12/11 07:36:35;;;;;;;6.13;1.42;;;;;;;4.74;74.24;100334.63;5986404;24;20432;-76
2021/12/11 07:39:08;;;;;;;9.20;1.58;;;;;;;4.83;74.03;100349.50;5990817;24;20008;-79
2021/12/11 07:41:33;;;;;;;5.85;0.95;;;;;;;4.83;74.54;100360.34;6094192;23;20017;-76
2021/12/11 07:44:02;;;;;;;3.25;1.25;;;;;;;4.83;74.17;100373.91;6147220;23;20005;-76
2021/12/11 07:46:39;;;;;;;;;;;;;;;;;;;;;
2021/12/11 07:52:03;;;;;;;1.13;0.90;;;;;;;5.01;74.22;100382.00;6157953;23;20084;-76
2021/12/11 07:54:28;;;;;;;1.75;0.82;;;;;;;5.04;74.59;100389.66;6167682;23;20016;-80
2021/12/11 07:57:01;;;;;;;1.10;0.90;;;;;;;4.95;73.91;100372.06;6194211;23;20000;-78
2021/12/11 07:59:29;;;;;;;0.75;0.30;;;;;;;5.06;74.47;100382.09;6195026;23;20126;-78
2021/12/11 08:01:55;;;;;;;1.13;0.68;;;;;;;5.12;74.47;100380.34;6195889;23;20021;-79
2021/12/11 08:04:32;;;;;;;2.35;0.90;;;;;;;5.11;74.59;100381.44;6169550;23;20012;-78
2021/12/11 08:06:58;;;;;;;3.15;1.10;;;;;;;5.28;74.86;100406.00;6170267;23;20092;-82
2021/12/11 08:09:24;;;;;;;1.17;0.68;;;;;;;5.17;73.64;100382.38;6194481;23;20028;-78
2021/12/11 08:11:50;;;;;;;5.00;1.25;;;;;;;5.26;74.38;100389.13;6192030;23;20001;-80
2021/12/11 08:14:17;;;;;;;1.60;0.70;;;;;;;5.32;73.54;100399.06;6170338;23;20080;-81
2021/12/11 08:16:48;;;;;;;2.40;1.30;;;;;;;5.28;74.00;100384.28;6170841;23;20016;-79
2021/12/11 08:19:21;;;;;;;7.72;0.90;;;;;;;5.38;73.95;100400.00;6195986;23;20009;-78
2021/12/11 08:21:49;;;;;;;2.08;1.10;;;;;;;5.30;74.24;100384.91;6175411;23;20024;-78
2021/12/11 08:24:16;;;;;;;0.98;0.80;;;;;;;5.34;73.37;100391.50;6199567;23;20015;-74
2021/12/11 08:26:43;;;;;;;3.67;0.77;;;;;;;5.48;74.26;100416.53;6200639;23;20035;-76
2021/12/11 08:29:13;;;;;;;0.43;0.38;;;;;;;5.54;73.95;100425.63;6225153;23;20004;-79
2021/12/11 08:31:42;;;;;;;2.70;1.00;;;;;;;5.60;74.58;100419.28;6197105;23;20028;-76
2021/12/11 08:34:16;;;;;;;1.13;0.68;;;;;;;5.65;74.02;100426.72;6225197;23;20004;-76
2021/12/11 08:36:48;;;;;;;1.17;0.80;;;;;;;5.64;73.80;100411.50;6194188;23;20091;-79
2021/12/11 08:39:22;;;;;;;2.25;1.00;;;;;;;5.56;73.43;100390.97;6221321;23;20008;-78
2021/12/11 08:42:11;;;;;;;4.38;1.52;;;;;;;5.79;73.29;100416.47;6224557;23;20941;-81
2021/12/11 08:44:42;;;;;;;4.68;1.10;;;;;;;5.65;73.71;100405.84;6201742;23;20058;-77
2021/12/11 08:47:28;;;;;;;2.38;1.30;;;;;;;5.84;73.47;100430.16;6204051;23;20010;-78
2021/12/11 08:50:22;;;;;;;7.45;1.35;;;;;;;5.87;74.05;100440.53;6203962;23;20309;-79
2021/12/11 08:52:55;;;;;;;3.17;0.95;;;;;;;5.81;72.92;100431.47;6203757;23;20096;-79
2021/12/11 08:55:44;;;;;;;;;;;;;;;;;;;;;
2021/12/11 08:58:14;;;;;;;5.40;1.10;;;;;;;5.93;73.86;100445.06;6230326;23;20000;-78
2021/12/11 09:01:13;;;;;;;6.47;1.58;;;;;;;6.03;73.61;100456.19;6203948;23;20039;-79
2021/12/11 09:04:18;;;;;;;;;;;;;;;;;;;;;
2021/12/11 09:07:05;;;;;;;10.73;2.22;;;;;;;6.04;73.60;100452.38;6054575;23;20015;-79
2021/12/11 09:09:51;;;;;;;13.35;1.42;;;;;;;6.17;73.21;100466.81;6137487;23;20000;-78
2021/12/11 09:12:20;;;;;;;;;;;;;;;6.27;73.27;100467.06;6202747;23;20010;-78
2021/12/11 09:15:05;;;;;;;9.15;1.60;;;;;;;6.27;72.43;100461.63;6231096;23;19911;-79
2021/12/11 09:17:40;;;;;;;4.25;0.95;;;;;;;6.39;72.56;100470.56;6199233;23;20419;-81
2021/12/11 09:20:32;;;;;;;7.38;1.70;;;;;;;6.44;72.94;100468.00;6199743;23;20005;-79
2021/12/11 09:23:17;;;;;;;11.18;2.03;;;;;;;6.52;72.36;100466.78;6226317;23;20009;-78
2021/12/11 09:26:06;;;;;;;9.48;1.65;;;;;;;6.62;72.71;100474.34;6199498;23;20004;-77
2021/12/11 09:28:43;;;;;;;5.32;0.95;;;;;;;6.55;72.40;100451.91;6200800;23;20083;-81
2021/12/11 09:31:18;;;;;;;6.50;1.70;;;;;;;6.73;72.08;100472.66;6201949;23;20056;-80
2021/12/11 09:34:17;;;;;;;8.20;1.58;;;;;;;6.66;72.04;100453.78;6229639;23;20017;-80
2021/12/11 09:36:48;;;;;;;1.13;0.75;;;;;;;6.88;71.95;100485.75;6199679;23;20001;-79
2021/12/11 09:39:33;;;;;;;;;;;;;;;;;;;;;
2021/12/11 09:45:26;;;;;;;5.30;0.98;;;;;;;7.62;71.24;100495.88;6227231;23;20015;-80
2021/12/11 09:48:05;;;;;;;0.75;0.63;;;;;;;7.76;71.26;100477.38;6227703;23;20000;-80
2021/12/11 09:50:54;;;;;;;;;;;;;;;;;;;;;
2021/12/11 10:00:16;;;;;;;0.93;0.30;;;;;;;8.41;70.15;100489.56;6032583;23;20071;-77
2021/12/11 10:06:26;;;;;;;2.33;0.30;;;;;;;8.58;70.14;100473.19;6077617;23;20018;-77
2021/12/11 10:09:09;;;;;;;1.08;0.43;;;;;;;8.63;69.53;100488.78;6152808;23;20001;-76
2021/12/11 10:11:37;;;;;;;1.83;0.40;;;;;;;8.77;69.38;100509.16;6193490;23;20025;-77
2021/12/11 10:14:19;;;;;;;;;;;;;;;;;;;;;
2021/12/11 10:17:10;;;;;;;;;;;;;;;;;;;;;
2021/12/11 10:20:00;;;;;;;0.40;0.40;;;;;;;9.07;68.26;100518.84;6078707;23;20007;-78
2021/12/11 10:22:50;;;;;;;0.60;0.30;;;;;;;9.10;68.61;100501.97;6066313;23;20029;-78
2021/12/11 10:25:30;;;;;;;0.77;0.30;;;;;;;9.09;68.50;100497.59;6075915;23;20029;-79
2021/12/11 10:28:01;;;;;;;0.40;0.38;;;;;;;9.13;68.06;100500.66;6056382;23;20017;-78
2021/12/11 10:30:30;;;;;;;0.75;0.45;;;;;;;9.12;68.11;100493.53;6078153;23;20003;-77
2021/12/11 10:32:56;;;;;;;0.75;0.45;;;;;;;9.13;68.06;100493.28;6081699;23;20018;-76
2021/12/11 10:38:55;;;;;;;2.72;0.82;;;;;;;9.34;67.32;100520.78;5991839;24;20011;-77
2021/12/11 10:45:01;;;;;;;2.20;1.50;;;;;;;9.24;66.99;100514.16;6020648;23;20067;-79
2021/12/11 10:48:06;;;;;;;;;;;;;;;;;;;;;
2021/12/11 10:55:20;;;;;;;;;;;;;;;;;;;;;
2021/12/11 11:02:08;;;;;;;3.13;0.95;;;;;;;9.36;66.80;100505.81;6046835;23;20030;-76
2021/12/11 11:05:00;;;;;;;2.38;0.55;;;;;;;9.30;66.91;100481.44;6043050;23;20049;-78
2021/12/11 11:07:27;;;;;;;0.70;0.70;;;;;;;9.35;67.01;100482.31;6147147;23;20008;-77
2021/12/11 11:10:07;;;;;;;1.52;0.50;;;;;;;9.54;66.74;100504.63;6145563;23;20028;-75
2021/12/11 11:12:33;;;;;;;1.40;1.10;;;;;;;9.41;66.59;100469.56;6197364;23;20059;-77
2021/12/11 11:14:59;;;;;;;6.30;1.00;;;;;;;9.60;66.61;100481.75;6173601;23;20009;-77
2021/12/11 11:17:43;;;;;;;6.00;1.35;;;;;;;9.63;66.49;100466.78;6171871;23;20538;-76
2021/12/11 11:20:12;;;;;;;4.30;1.58;;;;;;;9.61;65.98;100468.94;6172450;23;20009;-76
2021/12/11 11:22:40;;;;;;;3.67;1.25;;;;;;;9.73;65.99;100466.88;6175836;22;20036;-77
2021/12/11 11:25:41;;;;;;;7.00;1.77;;;;;;;9.88;66.20;100474.38;6199849;23;20443;-77
2021/12/11 11:28:11;;;;;;;4.43;0.98;;;;;;;9.89;65.13;100470.56;6226416;23;19997;-79
2021/12/11 11:31:07;;;;;;;2.22;0.88;;;;;;;9.93;65.18;100446.28;6202479;23;20015;-77
2021/12/11 11:33:34;;;;;;;7.25;1.40;;;;;;;10.14;65.32;100471.84;6223465;23;20005;-76
2021/12/11 11:39:24;;;;;;;1.00;0.77;;;;;;;10.32;65.02;100448.72;6134879;23;20066;-77
2021/12/11 11:42:20;;;;;;;;;;;;;;;;;;;;;
2021/12/11 11:45:09;;;;;;;6.25;1.02;;;;;;;10.72;64.91;100465.66;6187304;23;20036;-80
2021/12/11 11:47:34;;;;;;;1.88;0.88;;;;;;;10.62;63.69;100431.72;6228547;23;20001;-76
2021/12/11 11:50:10;;;;;;;4.05;1.55;;;;;;;10.57;63.46;100419.91;6223864;23;20134;-78
2021/12/11 11:53:26;;;;;;;;;;;;;;;;;;;;;
2021/12/11 12:02:52;;;;;;;6.13;1.38;;;;;;;10.66;63.07;100445.69;6077446;23;20038;-76
2021/12/11 12:05:35;;;;;;;9.73;1.52;;;;;;;10.58;63.19;100460.66;6136807;23;20006;-77
2021/12/11 12:08:42;;;;;;;6.13;1.50;;;;;;;10.50;63.59;100450.25;6229965;23;20056;-79
2021/12/11 12:22:09;;;;;;;;;;;;;;;;;;;;;
2021/12/11 12:53:56;;;;;;;2.70;1.20;;;;;;;11.13;63.80;100420.13;5940194;24;20043;-79
2021/12/11 12:56:32;;;;;;;;;;;;;;;;;;;;;
2021/12/11 13:10:20;;;;;;;12.40;1.80;;;;;;;11.12;64.59;100425.88;5803867;24;20026;-79
2021/12/11 13:21:05;;;;;;;2.38;1.38;;;;;;;11.03;65.06;100424.78;5750586;24;20016;-78
2021/12/11 13:24:48;;;;;;;6.78;2.03;;;;;;;10.99;64.89;100408.91;5697032;25;20077;-80
2021/12/11 13:27:32;;;;;;;5.18;1.42;;;;;;;11.02;64.97;100401.22;5659652;25;20029;-82
2021/12/11 14:57:07;;;;;;;;;;;;;;;;;;;;;
2021/12/11 15:04:49;;;;;;;2.03;1.10;;;;;;;10.20;77.60;100372.41;5852970;24;20873;-78
2021/12/11 15:08:02;;;;;;;;;;;;;;;;;;;;;
2021/12/11 15:11:40;;;;;;;;;;;;;;;;;;;;;
2021/12/11 15:51:15;;;;;;;2.97;0.70;;;;;;;9.97;82.36;100368.16;5803036;24;20028;-81
2021/12/11 17:40:55;;;;;;;3.30;3.10;;;;;;;10.77;83.68;100362.56;5899170;23;6467005;-78
2021/12/11 17:43:41;;;;;;;4.32;4.00;;;;;;;10.87;83.63;100372.72;6189695;23;20033;-77
2021/12/11 17:46:19;;;;;;;5.05;4.47;;;;;;;10.94;83.64;100378.75;6192880;23;20023;-78
2021/12/11 17:48:50;;;;;;;6.05;5.65;;;;;;;10.92;83.52;100371.91;6195656;23;20005;-77
2021/12/11 17:51:26;;;;;;;5.53;5.22;;;;;;;10.90;83.62;100368.63;6194832;23;20029;-75
2021/12/11 17:54:17;;;;;;;4.70;4.50;;;;;;;11.05;84.13;100387.81;6197590;23;20005;-77
2021/12/11 17:56:42;;;;;;;6.80;6.30;;;;;;;11.07;83.42;100390.28;6200781;23;20004;-81
2021/12/11 18:02:45;;;;;;;6.50;6.00;;;;;;;10.93;83.55;100368.91;6201290;23;20080;-78
2021/12/11 18:05:34;;;;;;;5.97;5.50;;;;;;;11.13;84.17;100395.50;6199770;23;20049;-78
2021/12/11 18:08:10;;;;;;;7.65;6.28;;;;;;;11.15;84.18;100400.72;6199963;23;20004;-77
2021/12/11 18:11:08;;;;;;;7.55;6.82;;;;;;;11.15;83.98;100392.50;6198894;23;20029;-75
2021/12/11 18:13:44;;;;;;;7.20;6.80;;;;;;;11.20;84.52;100395.25;6200804;23;20001;-75
2021/12/11 18:16:46;;;;;;;7.15;6.70;;;;;;;11.25;84.60;100397.97;6199198;23;20004;-76
2021/12/11 18:26:26;;;;;;;6.88;6.47;;;;;;;11.32;84.31;100387.59;6143785;23;20040;-81
2021/12/11 18:29:08;;;;;;;;;;;;;;;;;;;;;
2021/12/11 18:35:05;;;;;;;;;;;;;;;;;;;;;
2021/12/11 18:41:44;;;;;;;5.40;5.05;;;;;;;11.55;83.93;100404.59;6130436;23;20025;-81
2021/12/11 18:51:07;;;;;;;6.65;6.05;;;;;;;11.60;83.40;100406.53;6072458;23;20498;-78
2021/12/11 18:53:35;;;;;;;6.38;5.80;;;;;;;11.53;83.80;100398.56;6077552;23;20006;-78
2021/12/11 18:56:18;;;;;;;;;;;;;;;;;;;;;
2021/12/11 18:58:46;;;;;;;5.18;4.72;;;;;;;11.63;83.48;100414.19;6142801;23;20038;-79
2021/12/11 19:01:17;;;;;;;4.55;4.25;;;;;;;11.53;84.03;100388.44;6200918;23;20008;-78
2021/12/11 19:04:25;;;;;;;;;;;;;;;;;;;;;
2021/12/11 19:06:55;;;;;;;4.03;3.83;;;;;;;11.66;83.28;100398.00;6197835;23;20040;-77
2021/12/11 19:09:50;;;;;;;3.20;3.10;;;;;;;11.70;83.60;100409.25;6195196;23;19997;-78
2021/12/11 19:12:33;;;;;;;3.13;3.03;;;;;;;11.83;83.86;100414.19;6197362;23;20016;-78
2021/12/11 19:15:13;;;;;;;3.05;2.88;;;;;;;11.79;83.09;100420.50;6196679;23;20036;-85
2021/12/11 19:17:48;;;;;;;3.45;3.25;;;;;;;11.67;83.54;100394.19;6196989;23;20009;-78
2021/12/11 19:20:25;;;;;;;2.67;2.00;;;;;;;11.73;83.72;100402.41;6197070;23;20009;-76
2021/12/11 19:22:56;;;;;;;1.98;1.88;;;;;;;11.74;83.36;100398.56;6197321;23;20001;-78
2021/12/11 19:25:37;;;;;;;;;;;;;;;;;;;;;
2021/12/11 19:28:06;;;;;;;1.75;0.52;;;;;;;11.80;83.76;100408.44;6197214;23;20028;-78
2021/12/11 19:30:58;;;;;;;1.50;0.52;;;;;;;11.88;84.40;100410.63;6195684;23;20016;-78
2021/12/11 19:33:32;;;;;;;0.57;0.30;;;;;;;11.80;83.37;100394.75;6199529;23;20020;-79
2021/12/11 19:36:22;;;;;;;;;;;;;;;;;;;;;
2021/12/11 19:38:53;;;;;;;0.63;0.40;;;;;;;11.91;83.60;100410.06;6200966;23;20005;-80
2021/12/11 19:41:39;;;;;;;1.67;0.63;;;;;;;12.14;84.28;100436.13;6221566;23;20009;-82
2021/12/11 19:44:15;;;;;;;;;;;;;;;12.18;83.61;100441.88;6233831;23;20059;-82
2021/12/11 19:46:56;;;;;;;3.20;0.50;;;;;;;12.14;83.39;100440.78;6205290;23;19903;-82
2021/12/11 19:49:47;;;;;;;0.57;0.45;;;;;;;12.19;84.03;100443.50;6180543;23;20008;-81
2021/12/11 19:52:30;;;;;;;1.15;0.70;;;;;;;12.13;83.43;100428.97;6228974;23;20052;-81
2021/12/11 19:58:32;;;;;;;0.68;0.60;;;;;;;12.04;83.91;100400.50;6193440;23;20008;-84
2021/12/11 20:01:06;;;;;;;0.50;0.50;;;;;;;12.20;83.22;100428.72;6232733;23;20013;-83
2021/12/11 20:03:42;;;;;;;0.77;0.47;;;;;;;12.24;83.50;100427.06;6211751;23;20016;-82
2021/12/11 20:06:41;;;;;;;2.45;0.90;;;;;;;12.21;83.22;100425.69;6213311;23;19989;-79
2021/12/11 20:09:43;;;;;;;6.47;0.75;;;;;;;12.37;83.45;100445.66;6227331;23;20008;-81
2021/12/11 20:12:22;;;;;;;6.82;0.88;;;;;;;12.36;83.11;100446.75;6182510;23;20004;-82
2021/12/11 20:14:57;;;;;;;1.33;0.85;;;;;;;12.35;83.45;100436.91;6206441;23;20343;-80
2021/12/11 20:17:47;;;;;;;2.42;1.08;;;;;;;12.29;83.04;100427.03;6205847;23;20024;-81
2021/12/11 20:20:42;;;;;;;4.53;0.95;;;;;;;12.43;83.35;100464.88;6203975;23;20085;-79
2021/12/11 20:23:28;;;;;;;1.80;0.60;;;;;;;12.35;82.65;100438.81;6206898;23;20092;-85
2021/12/11 20:26:16;;;;;;;2.42;0.50;;;;;;;12.44;83.07;100450.03;6206442;23;20009;-79
2021/12/11 20:32:35;;;;;;;;;;;;;;;;;;;;;
2021/12/11 20:35:44;;;;;;;1.25;0.50;;;;;;;12.44;82.78;100450.03;6236814;23;20011;-83
2021/12/11 20:38:48;;;;;;;;;;;;;;;;;;;;;
2021/12/11 20:42:22;;;;;;;;;;;;;;;;;;;;;
2021/12/11 20:55:19;;;;;;;3.85;1.13;;;;;;;11.70;82.54;100445.69;6140158;23;20061;-75
2021/12/11 20:57:56;;;;;;;2.55;0.70;;;;;;;11.66;82.42;100441.84;6137580;23;20045;-75
2021/12/11 21:18:55;;;;;;;;;;;;;;;;;;;;;
2021/12/11 21:22:24;;;;;;;;;;;;;;;;;;;;;
2021/12/11 21:32:57;;;;;;;;;;;;;;;;;;;;;
2021/12/11 22:27:13;;;;;;;6.25;1.27;;;;;;;11.81;84.46;100478.56;6210045;23;20077;-79
2021/12/11 22:42:48;;;;;;;7.10;1.25;;;;;;;11.91;84.05;100505.97;6234734;23;20021;-78
2021/12/11 22:45:48;;;;;;;;;;;;;;;;;;;;;
2021/12/11 22:48:19;;;;;;;3.83;1.17;;;;;;;11.92;83.31;100482.97;6237366;23;20004;-76
2021/12/11 22:51:10;;;;;;;13.48;1.90;;;;;;;11.82;83.17;100477.47;6233364;23;20008;-75
2021/12/11 23:08:01;;;;;;;;;;;;;;;;;;;;;
2021/12/11 23:11:13;;;;;;;7.78;0.88;;;;;;;12.26;81.66;100539.19;6204442;23;20044;-80
2021/12/11 23:27:56;;;;;;;11.77;2.78;;;;;;;12.07;81.45;100544.41;5999779;23;20008;-79
2021/12/11 23:30:34;;;;;;;18.55;2.50;;;;;;;12.04;81.98;100541.09;6145835;23;20001;-78
2021/12/11 23:33:06;;;;;;;14.40;1.52;;;;;;;11.94;81.57;100538.34;6145345;23;20005;-80
2021/12/11 23:35:41;;;;;;;11.75;2.28;;;;;;;11.84;81.56;100510.91;6121377;23;20005;-78
2021/12/11 23:38:25;;;;;;;13.73;2.53;;;;;;;11.87;81.94;100530.38;6121268;23;20009;-83
2021/12/11 23:44:16;;;;;;;17.10;1.77;;;;;;;11.85;82.01;100531.72;6127257;23;20036;-78
2021/12/11 23:50:42;;;;;;;20.38;2.70;;;;;;;11.91;81.71;100552.56;6031592;23;20004;-83
2021/12/11 23:54:03;;;;;;;;;;;;;;;;;;;;;
2021/12/11 23:56:39;;;;;;;;;;;;;;;11.92;81.85;100553.41;6197684;23;20009;-80
2021/12/11 23:59:23;;;;;;;;;;;;;;;;;;;;;
